sensor_id;sensor_type;location;lat;lon;timestamp;P1;durP1;ratioP1;P2;durP2;ratioP2
29162;SDS011;20331;53.144;8.208;2023-12-20T00:00:57;18.27;;;1.80;;
29162;SDS011;20331;53.144;8.208;2023-12-20T00:06:18;17.98;;;1.90;;
29162;SDS011;20331;53.144;8.208;2023-12-20T00:11:40;14.20;;;2.35;;
29162;SDS011;20331;53.144;8.208;2023-12-20T00:17:03;16.40;;;2.22;;
29162;SDS011;20331;53.144;8.208;2023-12-20T00:22:25;15.00;;;2.38;;
29162;SDS011;20331;53.144;8.208;2023-12-20T00:27:47;14.80;;;1.90;;
29162;SDS011;20331;53.144;8.208;2023-12-20T00:33:09;13.85;;;1.92;;
29162;SDS011;20331;53.144;8.208;2023-12-20T00:38:31;11.07;;;1.80;;
29162;SDS011;20331;53.144;8.208;2023-12-20T00:43:52;18.00;;;2.30;;
29162;SDS011;20331;53.144;8.208;2023-12-20T00:49:14;14.88;;;1.90;;
29162;SDS011;20331;53.144;8.208;2023-12-20T00:54:38;21.55;;;2.17;;
29162;SDS011;20331;53.144;8.208;2023-12-20T00:59:59;17.70;;;1.90;;
29162;SDS011;20331;53.144;8.208;2023-12-20T01:05:21;16.80;;;1.83;;
29162;SDS011;20331;53.144;8.208;2023-12-20T01:10:44;13.88;;;2.30;;
29162;SDS011;20331;53.144;8.208;2023-12-20T01:16:09;12.50;;;1.85;;
29162;SDS011;20331;53.144;8.208;2023-12-20T01:21:32;19.45;;;1.90;;
29162;SDS011;20331;53.144;8.208;2023-12-20T01:26:54;13.60;;;2.20;;
29162;SDS011;20331;53.144;8.208;2023-12-20T01:32:15;10.95;;;1.50;;
29162;SDS011;20331;53.144;8.208;2023-12-20T01:37:37;9.13;;;1.83;;
29162;SDS011;20331;53.144;8.208;2023-12-20T01:43:02;9.98;;;1.90;;
29162;SDS011;20331;53.144;8.208;2023-12-20T01:48:29;12.18;;;1.75;;
29162;SDS011;20331;53.144;8.208;2023-12-20T01:53:54;12.38;;;1.85;;
29162;SDS011;20331;53.144;8.208;2023-12-20T01:59:18;9.90;;;1.80;;
29162;SDS011;20331;53.144;8.208;2023-12-20T02:04:41;15.77;;;1.90;;
29162;SDS011;20331;53.144;8.208;2023-12-20T02:10:04;14.70;;;1.73;;
29162;SDS011;20331;53.144;8.208;2023-12-20T02:15:26;12.50;;;1.80;;
29162;SDS011;20331;53.144;8.208;2023-12-20T02:20:48;14.88;;;1.88;;
29162;SDS011;20331;53.144;8.208;2023-12-20T02:26:09;13.75;;;2.20;;
29162;SDS011;20331;53.144;8.208;2023-12-20T02:31:31;16.38;;;2.00;;
29162;SDS011;20331;53.144;8.208;2023-12-20T02:36:53;10.48;;;1.73;;
29162;SDS011;20331;53.144;8.208;2023-12-20T02:42:15;20.73;;;2.08;;
29162;SDS011;20331;53.144;8.208;2023-12-20T02:47:37;16.52;;;1.88;;
29162;SDS011;20331;53.144;8.208;2023-12-20T02:52:58;14.60;;;1.90;;
29162;SDS011;20331;53.144;8.208;2023-12-20T02:58:20;15.02;;;2.25;;
29162;SDS011;20331;53.144;8.208;2023-12-20T03:03:42;13.13;;;1.73;;
29162;SDS011;20331;53.144;8.208;2023-12-20T03:09:04;19.38;;;2.22;;
29162;SDS011;20331;53.144;8.208;2023-12-20T03:14:25;16.15;;;2.25;;
29162;SDS011;20331;53.144;8.208;2023-12-20T03:19:47;13.10;;;1.90;;
29162;SDS011;20331;53.144;8.208;2023-12-20T03:25:09;18.17;;;2.38;;
29162;SDS011;20331;53.144;8.208;2023-12-20T03:30:30;9.10;;;1.80;;
29162;SDS011;20331;53.144;8.208;2023-12-20T03:35:52;11.82;;;2.13;;
29162;SDS011;20331;53.144;8.208;2023-12-20T03:41:14;16.25;;;1.92;;
29162;SDS011;20331;53.144;8.208;2023-12-20T03:46:35;20.15;;;2.35;;
29162;SDS011;20331;53.144;8.208;2023-12-20T03:51:57;16.83;;;2.28;;
29162;SDS011;20331;53.144;8.208;2023-12-20T03:57:19;17.40;;;2.03;;
29162;SDS011;20331;53.144;8.208;2023-12-20T04:02:41;14.27;;;2.08;;
29162;SDS011;20331;53.144;8.208;2023-12-20T04:08:03;14.82;;;1.67;;
29162;SDS011;20331;53.144;8.208;2023-12-20T04:13:25;17.23;;;2.55;;
29162;SDS011;20331;53.144;8.208;2023-12-20T04:18:47;16.30;;;2.30;;
29162;SDS011;20331;53.144;8.208;2023-12-20T04:24:08;21.70;;;2.53;;
29162;SDS011;20331;53.144;8.208;2023-12-20T04:29:30;22.27;;;2.47;;
29162;SDS011;20331;53.144;8.208;2023-12-20T04:34:51;19.48;;;2.58;;
29162;SDS011;20331;53.144;8.208;2023-12-20T04:40:13;18.77;;;2.58;;
29162;SDS011;20331;53.144;8.208;2023-12-20T04:45:35;23.42;;;3.17;;
29162;SDS011;20331;53.144;8.208;2023-12-20T04:50:57;21.67;;;2.83;;
29162;SDS011;20331;53.144;8.208;2023-12-20T04:56:18;19.27;;;2.70;;
29162;SDS011;20331;53.144;8.208;2023-12-20T05:01:40;24.80;;;2.90;;
29162;SDS011;20331;53.144;8.208;2023-12-20T05:07:02;22.23;;;2.67;;
29162;SDS011;20331;53.144;8.208;2023-12-20T05:12:26;17.65;;;2.63;;
29162;SDS011;20331;53.144;8.208;2023-12-20T05:17:48;21.55;;;3.28;;
29162;SDS011;20331;53.144;8.208;2023-12-20T05:23:10;19.52;;;3.40;;
29162;SDS011;20331;53.144;8.208;2023-12-20T05:28:34;16.58;;;2.67;;
29162;SDS011;20331;53.144;8.208;2023-12-20T05:33:55;21.25;;;3.15;;
29162;SDS011;20331;53.144;8.208;2023-12-20T05:39:17;28.13;;;3.53;;
29162;SDS011;20331;53.144;8.208;2023-12-20T05:44:39;20.73;;;2.97;;
29162;SDS011;20331;53.144;8.208;2023-12-20T05:50:00;30.63;;;3.85;;
29162;SDS011;20331;53.144;8.208;2023-12-20T05:55:22;39.60;;;4.00;;
29162;SDS011;20331;53.144;8.208;2023-12-20T06:00:44;26.20;;;3.92;;
29162;SDS011;20331;53.144;8.208;2023-12-20T06:06:06;30.38;;;4.13;;
29162;SDS011;20331;53.144;8.208;2023-12-20T06:11:37;26.75;;;3.78;;
29162;SDS011;20331;53.144;8.208;2023-12-20T06:16:58;28.55;;;3.47;;
29162;SDS011;20331;53.144;8.208;2023-12-20T06:22:20;26.15;;;3.45;;
29162;SDS011;20331;53.144;8.208;2023-12-20T06:27:42;19.95;;;3.13;;
29162;SDS011;20331;53.144;8.208;2023-12-20T06:33:04;22.10;;;3.40;;
29162;SDS011;20331;53.144;8.208;2023-12-20T06:38:28;29.60;;;3.65;;
29162;SDS011;20331;53.144;8.208;2023-12-20T06:43:50;29.75;;;4.10;;
29162;SDS011;20331;53.144;8.208;2023-12-20T06:49:14;23.55;;;3.40;;
29162;SDS011;20331;53.144;8.208;2023-12-20T06:54:36;23.63;;;4.07;;
29162;SDS011;20331;53.144;8.208;2023-12-20T06:59:57;29.00;;;4.03;;
29162;SDS011;20331;53.144;8.208;2023-12-20T07:05:19;27.40;;;3.38;;
29162;SDS011;20331;53.144;8.208;2023-12-20T07:10:41;37.78;;;5.03;;
29162;SDS011;20331;53.144;8.208;2023-12-20T07:16:03;33.97;;;4.32;;
29162;SDS011;20331;53.144;8.208;2023-12-20T07:21:25;32.75;;;4.40;;
29162;SDS011;20331;53.144;8.208;2023-12-20T07:26:46;26.85;;;3.95;;
29162;SDS011;20331;53.144;8.208;2023-12-20T07:32:08;28.10;;;3.80;;
29162;SDS011;20331;53.144;8.208;2023-12-20T07:37:29;27.80;;;3.95;;
29162;SDS011;20331;53.144;8.208;2023-12-20T07:42:51;26.48;;;3.78;;
29162;SDS011;20331;53.144;8.208;2023-12-20T07:48:13;21.85;;;3.15;;
29162;SDS011;20331;53.144;8.208;2023-12-20T07:53:35;25.50;;;3.47;;
29162;SDS011;20331;53.144;8.208;2023-12-20T07:58:56;29.50;;;3.72;;
29162;SDS011;20331;53.144;8.208;2023-12-20T08:04:21;22.35;;;3.22;;
29162;SDS011;20331;53.144;8.208;2023-12-20T08:09:42;20.85;;;3.70;;
29162;SDS011;20331;53.144;8.208;2023-12-20T08:15:05;32.75;;;4.10;;
29162;SDS011;20331;53.144;8.208;2023-12-20T08:20:27;27.55;;;3.88;;
29162;SDS011;20331;53.144;8.208;2023-12-20T08:26:07;25.40;;;4.13;;
29162;SDS011;20331;53.144;8.208;2023-12-20T08:31:29;35.28;;;3.97;;
29162;SDS011;20331;53.144;8.208;2023-12-20T08:36:50;24.77;;;4.13;;
29162;SDS011;20331;53.144;8.208;2023-12-20T08:42:15;32.80;;;4.38;;
29162;SDS011;20331;53.144;8.208;2023-12-20T08:47:36;24.02;;;3.65;;
29162;SDS011;20331;53.144;8.208;2023-12-20T08:52:58;30.45;;;4.18;;
29162;SDS011;20331;53.144;8.208;2023-12-20T08:58:20;31.20;;;3.65;;
29162;SDS011;20331;53.144;8.208;2023-12-20T09:03:41;29.38;;;4.32;;
29162;SDS011;20331;53.144;8.208;2023-12-20T09:09:03;33.90;;;4.25;;
29162;SDS011;20331;53.144;8.208;2023-12-20T09:14:25;24.90;;;4.03;;
29162;SDS011;20331;53.144;8.208;2023-12-20T09:19:47;30.92;;;5.35;;
29162;SDS011;20331;53.144;8.208;2023-12-20T09:25:09;7.72;;;2.40;;
29162;SDS011;20331;53.144;8.208;2023-12-20T09:30:32;7.05;;;1.25;;
29162;SDS011;20331;53.144;8.208;2023-12-20T09:35:54;4.15;;;0.98;;
29162;SDS011;20331;53.144;8.208;2023-12-20T09:41:16;11.02;;;1.00;;
29162;SDS011;20331;53.144;8.208;2023-12-20T09:46:38;5.55;;;0.80;;
29162;SDS011;20331;53.144;8.208;2023-12-20T09:52:10;3.83;;;0.88;;
29162;SDS011;20331;53.144;8.208;2023-12-20T09:57:32;5.32;;;0.95;;
29162;SDS011;20331;53.144;8.208;2023-12-20T10:02:58;9.98;;;1.17;;
29162;SDS011;20331;53.144;8.208;2023-12-20T10:08:21;7.43;;;1.10;;
29162;SDS011;20331;53.144;8.208;2023-12-20T10:13:44;7.40;;;1.48;;
29162;SDS011;20331;53.144;8.208;2023-12-20T10:19:08;8.30;;;1.27;;
29162;SDS011;20331;53.144;8.208;2023-12-20T10:24:30;8.18;;;1.50;;
29162;SDS011;20331;53.144;8.208;2023-12-20T10:29:52;12.85;;;1.40;;
29162;SDS011;20331;53.144;8.208;2023-12-20T10:35:14;7.43;;;1.20;;
29162;SDS011;20331;53.144;8.208;2023-12-20T10:40:36;11.77;;;1.60;;
29162;SDS011;20331;53.144;8.208;2023-12-20T10:45:59;10.95;;;1.58;;
29162;SDS011;20331;53.144;8.208;2023-12-20T10:51:21;8.80;;;1.48;;
29162;SDS011;20331;53.144;8.208;2023-12-20T10:56:47;16.55;;;1.90;;
29162;SDS011;20331;53.144;8.208;2023-12-20T11:02:13;12.25;;;1.38;;
29162;SDS011;20331;53.144;8.208;2023-12-20T11:07:39;7.65;;;1.55;;
29162;SDS011;20331;53.144;8.208;2023-12-20T11:13:10;8.32;;;1.20;;
29162;SDS011;20331;53.144;8.208;2023-12-20T11:18:38;13.52;;;1.67;;
29162;SDS011;20331;53.144;8.208;2023-12-20T11:24:02;13.13;;;1.73;;
29162;SDS011;20331;53.144;8.208;2023-12-20T11:35:00;16.60;;;1.92;;
29162;SDS011;20331;53.144;8.208;2023-12-20T11:40:23;17.35;;;2.63;;
29162;SDS011;20331;53.144;8.208;2023-12-20T11:45:49;13.23;;;2.13;;
29162;SDS011;20331;53.144;8.208;2023-12-20T11:51:13;20.58;;;4.55;;
29162;SDS011;20331;53.144;8.208;2023-12-20T11:56:35;19.77;;;1.85;;
29162;SDS011;20331;53.144;8.208;2023-12-20T12:01:58;16.83;;;2.30;;
29162;SDS011;20331;53.144;8.208;2023-12-20T12:07:22;18.30;;;2.28;;
29162;SDS011;20331;53.144;8.208;2023-12-20T12:12:44;18.33;;;2.60;;
29162;SDS011;20331;53.144;8.208;2023-12-20T12:18:06;22.73;;;2.53;;
29162;SDS011;20331;53.144;8.208;2023-12-20T12:23:28;24.55;;;2.42;;
29162;SDS011;20331;53.144;8.208;2023-12-20T12:28:50;16.73;;;2.75;;
29162;SDS011;20331;53.144;8.208;2023-12-20T12:34:12;26.77;;;3.25;;
29162;SDS011;20331;53.144;8.208;2023-12-20T12:39:33;14.48;;;2.00;;
29162;SDS011;20331;53.144;8.208;2023-12-20T12:44:55;20.25;;;2.42;;
29162;SDS011;20331;53.144;8.208;2023-12-20T12:50:17;16.60;;;1.88;;
29162;SDS011;20331;53.144;8.208;2023-12-20T12:55:39;21.92;;;2.90;;
29162;SDS011;20331;53.144;8.208;2023-12-20T13:01:01;22.05;;;3.45;;
29162;SDS011;20331;53.144;8.208;2023-12-20T13:06:24;18.35;;;2.22;;
29162;SDS011;20331;53.144;8.208;2023-12-20T13:11:46;18.50;;;2.78;;
29162;SDS011;20331;53.144;8.208;2023-12-20T13:17:07;17.00;;;2.35;;
29162;SDS011;20331;53.144;8.208;2023-12-20T13:22:29;18.10;;;2.53;;
29162;SDS011;20331;53.144;8.208;2023-12-20T13:27:51;14.57;;;2.15;;
29162;SDS011;20331;53.144;8.208;2023-12-20T13:33:12;17.15;;;2.50;;
29162;SDS011;20331;53.144;8.208;2023-12-20T13:38:34;16.67;;;2.35;;
29162;SDS011;20331;53.144;8.208;2023-12-20T13:43:56;20.23;;;3.13;;
29162;SDS011;20331;53.144;8.208;2023-12-20T13:49:17;17.27;;;2.55;;
29162;SDS011;20331;53.144;8.208;2023-12-20T13:54:39;15.18;;;2.28;;
29162;SDS011;20331;53.144;8.208;2023-12-20T14:00:01;16.20;;;2.65;;
29162;SDS011;20331;53.144;8.208;2023-12-20T14:05:22;16.67;;;2.63;;
29162;SDS011;20331;53.144;8.208;2023-12-20T14:10:49;13.73;;;2.30;;
29162;SDS011;20331;53.144;8.208;2023-12-20T14:16:11;16.48;;;2.80;;
29162;SDS011;20331;53.144;8.208;2023-12-20T14:21:33;20.35;;;2.70;;
29162;SDS011;20331;53.144;8.208;2023-12-20T14:26:55;15.77;;;2.90;;
29162;SDS011;20331;53.144;8.208;2023-12-20T14:32:17;16.85;;;2.63;;
29162;SDS011;20331;53.144;8.208;2023-12-20T14:37:38;19.83;;;2.30;;
29162;SDS011;20331;53.144;8.208;2023-12-20T14:43:01;14.23;;;2.67;;
29162;SDS011;20331;53.144;8.208;2023-12-20T14:48:25;11.80;;;2.05;;
29162;SDS011;20331;53.144;8.208;2023-12-20T14:53:48;12.68;;;2.20;;
29162;SDS011;20331;53.144;8.208;2023-12-20T14:59:10;16.55;;;2.28;;
29162;SDS011;20331;53.144;8.208;2023-12-20T15:04:32;16.63;;;2.47;;
29162;SDS011;20331;53.144;8.208;2023-12-20T15:09:54;16.60;;;2.22;;
29162;SDS011;20331;53.144;8.208;2023-12-20T15:15:15;17.35;;;2.05;;
29162;SDS011;20331;53.144;8.208;2023-12-20T15:20:37;17.45;;;2.47;;
29162;SDS011;20331;53.144;8.208;2023-12-20T15:25:58;13.30;;;2.35;;
29162;SDS011;20331;53.144;8.208;2023-12-20T15:31:20;16.88;;;2.78;;
29162;SDS011;20331;53.144;8.208;2023-12-20T15:36:47;12.13;;;2.53;;
29162;SDS011;20331;53.144;8.208;2023-12-20T15:42:09;16.98;;;2.22;;
29162;SDS011;20331;53.144;8.208;2023-12-20T15:47:31;12.68;;;2.13;;
29162;SDS011;20331;53.144;8.208;2023-12-20T15:52:53;11.00;;;2.20;;
29162;SDS011;20331;53.144;8.208;2023-12-20T15:58:14;8.45;;;1.90;;
29162;SDS011;20331;53.144;8.208;2023-12-20T16:03:36;12.48;;;1.95;;
29162;SDS011;20331;53.144;8.208;2023-12-20T16:09:07;7.00;;;1.70;;
29162;SDS011;20331;53.144;8.208;2023-12-20T16:14:29;10.52;;;1.52;;
29162;SDS011;20331;53.144;8.208;2023-12-20T16:19:50;10.27;;;1.70;;
29162;SDS011;20331;53.144;8.208;2023-12-20T16:25:13;8.15;;;1.70;;
29162;SDS011;20331;53.144;8.208;2023-12-20T16:30:34;9.40;;;1.65;;
29162;SDS011;20331;53.144;8.208;2023-12-20T16:35:57;5.00;;;1.30;;
29162;SDS011;20331;53.144;8.208;2023-12-20T16:41:18;9.90;;;1.50;;
29162;SDS011;20331;53.144;8.208;2023-12-20T16:46:40;10.63;;;1.77;;
29162;SDS011;20331;53.144;8.208;2023-12-20T16:52:03;13.32;;;2.00;;
29162;SDS011;20331;53.144;8.208;2023-12-20T16:57:26;7.63;;;1.50;;
29162;SDS011;20331;53.144;8.208;2023-12-20T17:02:48;7.00;;;1.40;;
29162;SDS011;20331;53.144;8.208;2023-12-20T17:08:09;10.00;;;1.90;;
29162;SDS011;20331;53.144;8.208;2023-12-20T17:13:31;11.45;;;1.67;;
29162;SDS011;20331;53.144;8.208;2023-12-20T17:18:53;7.95;;;1.95;;
29162;SDS011;20331;53.144;8.208;2023-12-20T17:24:14;10.13;;;1.95;;
29162;SDS011;20331;53.144;8.208;2023-12-20T17:29:36;9.90;;;1.95;;
29162;SDS011;20331;53.144;8.208;2023-12-20T17:34:58;9.15;;;1.98;;
29162;SDS011;20331;53.144;8.208;2023-12-20T17:40:19;7.38;;;1.50;;
29162;SDS011;20331;53.144;8.208;2023-12-20T17:45:41;10.05;;;1.77;;
29162;SDS011;20331;53.144;8.208;2023-12-20T17:51:03;21.60;;;2.33;;
29162;SDS011;20331;53.144;8.208;2023-12-20T17:56:24;9.30;;;2.40;;
29162;SDS011;20331;53.144;8.208;2023-12-20T18:01:46;23.27;;;2.80;;
29162;SDS011;20331;53.144;8.208;2023-12-20T18:07:08;9.02;;;2.28;;
29162;SDS011;20331;53.144;8.208;2023-12-20T18:12:30;16.83;;;2.65;;
29162;SDS011;20331;53.144;8.208;2023-12-20T18:17:52;12.38;;;2.58;;
29162;SDS011;20331;53.144;8.208;2023-12-20T18:23:13;13.77;;;2.60;;
29162;SDS011;20331;53.144;8.208;2023-12-20T18:28:36;14.30;;;2.40;;
29162;SDS011;20331;53.144;8.208;2023-12-20T18:33:58;12.32;;;2.72;;
29162;SDS011;20331;53.144;8.208;2023-12-20T18:39:20;16.10;;;2.60;;
29162;SDS011;20331;53.144;8.208;2023-12-20T18:44:41;18.77;;;3.40;;
29162;SDS011;20331;53.144;8.208;2023-12-20T18:50:03;8.80;;;2.78;;
29162;SDS011;20331;53.144;8.208;2023-12-20T18:55:29;13.80;;;3.08;;
29162;SDS011;20331;53.144;8.208;2023-12-20T19:00:50;18.55;;;3.50;;
29162;SDS011;20331;53.144;8.208;2023-12-20T19:06:12;19.60;;;3.80;;
29162;SDS011;20331;53.144;8.208;2023-12-20T19:11:34;21.67;;;3.92;;
29162;SDS011;20331;53.144;8.208;2023-12-20T19:16:56;19.27;;;4.57;;
29162;SDS011;20331;53.144;8.208;2023-12-20T19:22:20;15.23;;;4.80;;
29162;SDS011;20331;53.144;8.208;2023-12-20T19:27:41;23.27;;;5.43;;
29162;SDS011;20331;53.144;8.208;2023-12-20T19:33:04;22.45;;;6.03;;
29162;SDS011;20331;53.144;8.208;2023-12-20T19:38:26;22.23;;;6.00;;
29162;SDS011;20331;53.144;8.208;2023-12-20T19:43:48;17.63;;;5.63;;
29162;SDS011;20331;53.144;8.208;2023-12-20T19:49:10;19.63;;;6.07;;
29162;SDS011;20331;53.144;8.208;2023-12-20T19:54:31;15.18;;;5.55;;
29162;SDS011;20331;53.144;8.208;2023-12-20T19:59:53;15.93;;;5.38;;
29162;SDS011;20331;53.144;8.208;2023-12-20T20:05:15;14.07;;;5.60;;
29162;SDS011;20331;53.144;8.208;2023-12-20T20:10:37;11.45;;;4.38;;
29162;SDS011;20331;53.144;8.208;2023-12-20T20:15:59;7.60;;;3.65;;
29162;SDS011;20331;53.144;8.208;2023-12-20T20:21:21;11.80;;;3.88;;
29162;SDS011;20331;53.144;8.208;2023-12-20T20:26:42;8.20;;;3.50;;
29162;SDS011;20331;53.144;8.208;2023-12-20T20:32:04;6.00;;;3.30;;
29162;SDS011;20331;53.144;8.208;2023-12-20T20:37:27;4.60;;;2.80;;
29162;SDS011;20331;53.144;8.208;2023-12-20T20:42:48;4.70;;;2.70;;
29162;SDS011;20331;53.144;8.208;2023-12-20T20:48:10;3.70;;;2.00;;
29162;SDS011;20331;53.144;8.208;2023-12-20T20:53:47;3.90;;;1.95;;
29162;SDS011;20331;53.144;8.208;2023-12-20T20:59:18;2.60;;;2.05;;
29162;SDS011;20331;53.144;8.208;2023-12-20T21:04:40;2.92;;;2.00;;
29162;SDS011;20331;53.144;8.208;2023-12-20T21:10:02;2.25;;;1.60;;
29162;SDS011;20331;53.144;8.208;2023-12-20T21:15:23;2.33;;;1.48;;
29162;SDS011;20331;53.144;8.208;2023-12-20T21:20:45;2.85;;;1.40;;
29162;SDS011;20331;53.144;8.208;2023-12-20T21:26:09;1.50;;;1.40;;
29162;SDS011;20331;53.144;8.208;2023-12-20T21:31:32;1.50;;;1.40;;
29162;SDS011;20331;53.144;8.208;2023-12-20T21:36:54;1.52;;;1.17;;
29162;SDS011;20331;53.144;8.208;2023-12-20T21:42:16;1.67;;;1.20;;
29162;SDS011;20331;53.144;8.208;2023-12-20T21:47:37;0.90;;;0.90;;
29162;SDS011;20331;53.144;8.208;2023-12-20T21:52:59;0.80;;;0.80;;
29162;SDS011;20331;53.144;8.208;2023-12-20T21:58:21;1.15;;;0.85;;
29162;SDS011;20331;53.144;8.208;2023-12-20T22:03:42;4.25;;;0.90;;
29162;SDS011;20331;53.144;8.208;2023-12-20T22:09:04;2.80;;;0.93;;
29162;SDS011;20331;53.144;8.208;2023-12-20T22:14:26;0.93;;;0.85;;
29162;SDS011;20331;53.144;8.208;2023-12-20T22:19:50;2.42;;;1.17;;
29162;SDS011;20331;53.144;8.208;2023-12-20T22:25:12;5.80;;;1.30;;
29162;SDS011;20331;53.144;8.208;2023-12-20T22:30:33;5.65;;;1.70;;
29162;SDS011;20331;53.144;8.208;2023-12-20T22:35:55;4.60;;;1.92;;
29162;SDS011;20331;53.144;8.208;2023-12-20T22:41:17;8.10;;;2.00;;
29162;SDS011;20331;53.144;8.208;2023-12-20T22:46:38;8.32;;;2.10;;
29162;SDS011;20331;53.144;8.208;2023-12-20T22:52:01;7.53;;;2.20;;
29162;SDS011;20331;53.144;8.208;2023-12-20T22:57:23;12.85;;;2.47;;
29162;SDS011;20331;53.144;8.208;2023-12-20T23:02:45;9.10;;;2.45;;
29162;SDS011;20331;53.144;8.208;2023-12-20T23:08:07;9.95;;;2.58;;
29162;SDS011;20331;53.144;8.208;2023-12-20T23:13:29;9.95;;;2.17;;
29162;SDS011;20331;53.144;8.208;2023-12-20T23:18:50;8.15;;;2.40;;
29162;SDS011;20331;53.144;8.208;2023-12-20T23:24:12;11.57;;;2.03;;
29162;SDS011;20331;53.144;8.208;2023-12-20T23:29:36;7.57;;;1.75;;
29162;SDS011;20331;53.144;8.208;2023-12-20T23:34:58;14.95;;;2.35;;
29162;SDS011;20331;53.144;8.208;2023-12-20T23:40:33;12.90;;;2.50;;
29162;SDS011;20331;53.144;8.208;2023-12-20T23:45:55;14.30;;;2.58;;
29162;SDS011;20331;53.144;8.208;2023-12-20T23:51:16;18.35;;;2.45;;
29162;SDS011;20331;53.144;8.208;2023-12-20T23:56:38;15.70;;;2.97;;
